Time;durP1;ratioP1;P1;durP2;ratioP2;P2;SDS_P1;SDS_P2;PMS_P1;PMS_P2;Temp;Humidity;BMP_temperature;BMP_pressure;BME280_temperature;BME280_humidity;BME280_pressure;Samples;Min_cycle;Max_cycle;Signal;HPM_P1;HPM_P2
2021/01/26 00:00:15;;;;;;;7.95;7.25;;;;;;;-1.16;98.75;95464.66;1052334;28;20492;-74
2021/01/26 00:00:46;;;;;;;8.23;7.43;;;;;;;-1.15;98.72;95476.66;1051654;28;20054;-74
2021/01/26 00:01:18;;;;;;;8.02;7.22;;;;;;;-1.22;99.23;95469.59;1051947;28;20065;-74
2021/01/26 00:01:48;;;;;;;7.85;7.05;;;;;;;-1.21;99.45;95473.81;1052003;28;20032;-74
2021/01/26 00:02:18;;;;;;;8.45;7.55;;;;;;;-1.21;99.07;95468.59;1049819;28;20421;-74
2021/01/26 00:02:49;;;;;;;8.40;7.50;;;;;;;-1.24;98.96;95473.41;1048332;28;20480;-74
2021/01/26 00:03:20;;;;;;;8.18;7.38;;;;;;;-1.27;98.94;95474.59;1050781;28;20469;-74
2021/01/26 00:03:50;;;;;;;8.77;7.55;;;;;;;-1.23;99.42;95478.41;1048314;28;20553;-74
2021/01/26 00:04:21;;;;;;;8.27;7.40;;;;;;;-1.21;99.17;95476.41;1049072;28;20431;-74
2021/01/26 00:04:51;;;;;;;11.15;7.55;;;;;;;-1.24;99.32;95474.19;1048096;28;20024;-74
2021/01/26 00:05:23;;;;;;;8.85;7.47;;;;;;;-1.21;99.23;95476.41;1048121;28;20115;-74
2021/01/26 00:05:53;;;;;;;8.20;7.40;;;;;;;-1.22;98.96;95474.81;1047954;28;20029;-74
2021/01/26 00:06:24;;;;;;;8.32;7.50;;;;;;;-1.22;98.84;95477.41;1048387;28;20347;-74
2021/01/26 00:06:54;;;;;;;9.02;7.72;;;;;;;-1.21;98.71;95478.22;1048360;28;20394;-74
2021/01/26 00:07:25;;;;;;;7.88;7.07;;;;;;;-1.22;98.31;95480.00;1048368;28;20448;-74
2021/01/26 00:07:55;;;;;;;9.57;7.80;;;;;;;-1.23;98.35;95475.00;1048481;28;20021;-74
2021/01/26 00:08:26;;;;;;;8.15;7.35;;;;;;;-1.24;98.85;95479.41;1048479;28;20044;-74
2021/01/26 00:08:56;;;;;;;8.43;7.63;;;;;;;-1.25;98.94;95479.59;1048031;28;20013;-74
2021/01/26 00:09:26;;;;;;;8.30;7.35;;;;;;;-1.29;99.02;95481.78;1048115;28;20028;-74
2021/01/26 00:09:57;;;;;;;7.97;7.18;;;;;;;-1.27;99.45;95482.38;1048032;28;20020;-74
2021/01/26 00:10:28;;;;;;;8.50;7.47;;;;;;;-1.26;99.06;95481.38;1047938;28;20021;-74
2021/01/26 00:10:58;;;;;;;7.88;7.07;;;;;;;-1.25;98.54;95477.78;1048424;28;20017;-74
2021/01/26 00:11:28;;;;;;;8.43;7.45;;;;;;;-1.24;98.68;95482.00;1047656;28;20032;-74
2021/01/26 00:11:59;;;;;;;8.15;7.35;;;;;;;-1.23;98.72;95483.59;1048036;28;20025;-75
2021/01/26 00:12:29;;;;;;;7.88;7.07;;;;;;;-1.23;98.84;95478.41;1048030;28;20032;-75
2021/01/26 00:13:00;;;;;;;7.93;7.13;;;;;;;-1.23;99.02;95475.81;1048090;28;20013;-75
2021/01/26 00:13:31;;;;;;;7.40;6.70;;;;;;;-1.19;98.90;95481.41;1048413;28;20024;-74
2021/01/26 00:14:03;;;;;;;8.65;7.85;;;;;;;-1.22;99.24;95479.22;1048348;28;20059;-75
2021/01/26 00:14:33;;;;;;;8.10;7.30;;;;;;;-1.28;99.28;95480.78;1048272;28;20458;-75
2021/01/26 00:15:04;;;;;;;8.95;8.00;;;;;;;-1.27;99.09;95484.19;1049116;28;20036;-75
2021/01/26 00:15:35;;;;;;;10.32;8.15;;;;;;;-1.34;99.10;95480.72;1048344;28;20111;-75
2021/01/26 00:16:05;;;;;;;8.55;7.75;;;;;;;-1.28;100.00;95485.19;1051362;28;20499;-75
2021/01/26 00:16:36;;;;;;;8.52;7.70;;;;;;;-1.26;99.56;95481.38;1052543;28;20013;-75
2021/01/26 00:17:06;;;;;;;8.70;7.47;;;;;;;-1.24;99.20;95492.41;1052931;28;20089;-75
2021/01/26 00:17:36;;;;;;;8.88;7.97;;;;;;;-1.27;99.26;95495.38;1053269;28;20522;-75
2021/01/26 00:18:09;;;;;;;9.05;8.07;;;;;;;-1.27;99.25;95494.59;1053265;28;20146;-74
2021/01/26 00:18:39;;;;;;;8.77;7.88;;;;;;;-1.25;99.52;95485.59;1053325;28;20011;-75
2021/01/26 00:19:09;;;;;;;8.45;7.63;;;;;;;-1.24;99.25;95489.81;1053268;28;20020;-74
2021/01/26 00:19:40;;;;;;;8.85;7.82;;;;;;;-1.22;98.92;95485.22;1053383;28;20016;-75
2021/01/26 00:20:11;;;;;;;8.82;7.60;;;;;;;-1.25;98.99;95493.41;1053384;28;20016;-75
2021/01/26 00:20:43;;;;;;;8.75;7.10;;;;;;;-1.25;99.07;95483.00;1053160;28;20491;-75
2021/01/26 00:21:14;;;;;;;9.80;7.68;;;;;;;-1.25;99.25;95488.19;1053097;28;20044;-74
2021/01/26 00:21:44;;;;;;;8.60;7.75;;;;;;;-1.24;98.81;95484.59;1053295;28;20027;-74
2021/01/26 00:22:15;;;;;;;8.35;7.50;;;;;;;-1.25;99.39;95483.00;1053368;28;20031;-75
2021/01/26 00:22:45;;;;;;;8.35;7.53;;;;;;;-1.27;99.35;95484.19;1053334;28;20012;-75
2021/01/26 00:23:17;;;;;;;8.35;7.28;;;;;;;-1.25;99.33;95487.41;1052939;28;20078;-75
2021/01/26 00:23:47;;;;;;;7.72;7.03;;;;;;;-1.24;99.12;95484.59;1053205;28;20484;-74
2021/01/26 00:24:18;;;;;;;8.65;7.75;;;;;;;-1.27;99.12;95479.78;1053381;28;20098;-75
2021/01/26 00:24:48;;;;;;;8.90;8.00;;;;;;;-1.28;99.10;95488.59;1053416;28;20017;-75
2021/01/26 00:25:28;;;;;;;8.23;7.43;;;;;;;-1.28;98.92;95483.38;1053340;28;20031;-74
2021/01/26 00:25:58;;;;;;;8.20;7.40;;;;;;;-1.25;98.70;95483.00;1053294;28;20018;-75
2021/01/26 00:26:30;;;;;;;9.27;7.45;;;;;;;-1.22;98.72;95487.81;1053409;28;20069;-75
2021/01/26 00:27:00;;;;;;;7.75;7.05;;;;;;;-1.23;98.50;95486.19;1053396;28;20511;-75
2021/01/26 00:27:30;;;;;;;8.23;7.30;;;;;;;-1.21;98.33;95486.81;1052918;28;20020;-75
2021/01/26 00:28:02;;;;;;;8.52;7.15;;;;;;;-1.28;98.54;95480.78;1052983;28;20082;-74
2021/01/26 00:28:32;;;;;;;10.02;7.90;;;;;;;-1.26;98.43;95484.00;1048781;28;20500;-75
2021/01/26 00:29:09;;;;;;;8.40;7.60;;;;;;;-1.25;98.78;95485.59;1048953;28;20088;-74
2021/01/26 00:29:39;;;;;;;8.95;8.05;;;;;;;-1.23;99.16;95485.41;1052964;28;20137;-75
2021/01/26 00:30:18;;;;;;;10.10;8.05;;;;;;;-1.25;99.13;95490.78;1053107;28;20087;-74
2021/01/26 00:30:48;;;;;;;8.68;7.50;;;;;;;-1.27;98.64;95490.19;1052812;28;20019;-75
2021/01/26 00:31:18;;;;;;;8.73;7.82;;;;;;;-1.28;98.82;95488.59;1053135;28;20035;-74
2021/01/26 00:31:49;;;;;;;10.07;8.02;;;;;;;-1.29;98.94;95486.19;1053177;28;20020;-74
2021/01/26 00:32:19;;;;;;;9.55;7.90;;;;;;;-1.27;98.92;95495.38;1053015;28;20016;-75
2021/01/26 00:32:50;;;;;;;9.18;8.27;;;;;;;-1.25;98.79;95490.00;1053346;28;20031;-74
2021/01/26 00:33:21;;;;;;;8.50;7.63;;;;;;;-1.21;98.66;95489.41;1053268;28;20125;-73
2021/01/26 00:33:52;;;;;;;10.10;8.40;;;;;;;-1.25;98.62;95492.59;1053305;28;20020;-72
2021/01/26 00:34:23;;;;;;;8.98;8.05;;;;;;;-1.26;98.54;95489.19;1053127;28;20399;-72
2021/01/26 00:34:53;;;;;;;9.50;8.27;;;;;;;-1.27;98.94;95492.78;1053406;28;20059;-73
2021/01/26 00:35:24;;;;;;;10.10;8.02;;;;;;;-1.32;98.99;95489.94;1052997;28;20468;-73
2021/01/26 00:35:54;;;;;;;9.15;8.10;;;;;;;-1.30;99.15;95490.56;1052800;28;20369;-73
2021/01/26 00:36:25;;;;;;;9.35;8.43;;;;;;;-1.28;99.80;95485.97;1052569;28;20395;-73
2021/01/26 00:36:55;;;;;;;9.40;8.30;;;;;;;-1.24;99.26;95492.41;1053012;28;20733;-73
2021/01/26 00:37:26;;;;;;;8.73;7.82;;;;;;;-1.20;98.88;95490.22;1053337;28;20488;-73
2021/01/26 00:37:57;;;;;;;8.80;7.88;;;;;;;-1.21;98.59;95493.81;1053293;28;20024;-73
2021/01/26 00:38:28;;;;;;;10.70;8.75;;;;;;;-1.23;98.89;95488.81;1053270;28;20042;-73
2021/01/26 00:38:58;;;;;;;9.93;8.40;;;;;;;-1.28;98.29;95480.78;1052953;28;20028;-73
2021/01/26 00:39:28;;;;;;;8.45;7.57;;;;;;;-1.20;98.82;95496.22;1048754;28;20029;-73
2021/01/26 00:39:59;;;;;;;9.80;8.80;;;;;;;-1.22;98.74;95492.22;1048592;28;20028;-73
2021/01/26 00:40:29;;;;;;;9.73;8.70;;;;;;;-1.23;98.68;95496.59;1043775;28;20417;-73
2021/01/26 00:41:00;;;;;;;9.00;8.10;;;;;;;-1.21;98.63;95494.59;1044625;28;20044;-73
2021/01/26 00:41:30;;;;;;;8.80;7.90;;;;;;;-1.24;98.86;95500.19;1048587;28;20028;-73
2021/01/26 00:42:00;;;;;;;9.15;8.25;;;;;;;-1.24;99.49;95495.00;1048942;28;20044;-73
2021/01/26 00:42:32;;;;;;;9.27;8.38;;;;;;;-1.21;98.94;95502.41;1052854;28;20016;-73
2021/01/26 00:43:03;;;;;;;8.65;7.65;;;;;;;-1.23;98.74;95504.41;1053384;28;20098;-73
2021/01/26 00:43:34;;;;;;;9.18;8.27;;;;;;;-1.27;98.73;95499.78;1053329;28;20024;-73
2021/01/26 00:44:05;;;;;;;10.38;9.02;;;;;;;-1.24;99.04;95500.19;1053297;28;20091;-73
2021/01/26 00:44:36;;;;;;;10.02;8.70;;;;;;;-1.21;99.05;95499.00;1053222;28;20024;-73
2021/01/26 00:45:07;;;;;;;9.98;8.10;;;;;;;-1.20;99.01;95505.81;1053387;28;20028;-73
2021/01/26 00:45:38;;;;;;;8.98;8.07;;;;;;;-1.19;99.21;95500.41;1053259;28;20369;-73
2021/01/26 00:46:08;;;;;;;10.88;8.60;;;;;;;-1.18;99.15;95503.84;1053108;28;20481;-73
2021/01/26 00:46:38;;;;;;;9.18;8.27;;;;;;;-1.14;99.66;95493.88;1053080;28;20032;-73
2021/01/26 00:47:09;;;;;;;9.50;8.60;;;;;;;-1.15;99.30;95498.25;1053286;28;20070;-73
2021/01/26 00:47:39;;;;;;;9.25;8.30;;;;;;;-1.16;98.82;95499.25;1053223;28;20028;-73
2021/01/26 00:48:10;;;;;;;10.02;8.73;;;;;;;-1.16;99.02;95507.06;1053277;28;20023;-73
2021/01/26 00:48:40;;;;;;;8.60;7.38;;;;;;;-1.19;99.54;95508.22;1053167;28;20016;-72
2021/01/26 00:49:11;;;;;;;8.63;7.82;;;;;;;-1.19;98.97;95508.22;1053287;28;20024;-73
2021/01/26 00:49:41;;;;;;;8.48;7.63;;;;;;;-1.16;98.64;95508.88;1053207;28;20469;-73
2021/01/26 00:50:12;;;;;;;8.30;7.53;;;;;;;-1.14;98.68;95509.47;1052970;28;20473;-73
2021/01/26 00:50:42;;;;;;;8.60;7.70;;;;;;;-1.16;98.47;95508.88;1052879;28;20070;-73
2021/01/26 00:51:13;;;;;;;9.25;8.35;;;;;;;-1.14;98.71;95506.88;1052975;28;20020;-73
2021/01/26 00:51:43;;;;;;;11.55;8.05;;;;;;;-1.14;98.27;95509.47;1052557;28;20028;-73
2021/01/26 00:52:14;;;;;;;8.55;7.65;;;;;;;-1.12;98.32;95510.06;1053280;28;20027;-73
2021/01/26 00:52:44;;;;;;;9.18;7.63;;;;;;;-1.12;98.74;95512.69;1053219;28;20024;-73
2021/01/26 00:53:15;;;;;;;8.60;7.72;;;;;;;-1.11;98.59;95511.69;1052834;28;20119;-73
2021/01/26 00:53:45;;;;;;;10.13;8.27;;;;;;;-1.12;98.38;95512.69;1052074;28;20444;-72
2021/01/26 00:54:15;;;;;;;9.82;8.82;;;;;;;-1.15;98.57;95513.06;1053006;28;20032;-73
2021/01/26 00:54:46;;;;;;;10.07;8.20;;;;;;;-1.13;98.63;95518.88;1052770;28;20488;-73
2021/01/26 00:55:20;;;;;;;9.27;8.30;;;;;;;-1.17;98.31;95515.84;1053279;28;20437;-73
2021/01/26 00:55:51;;;;;;;8.07;7.28;;;;;;;-1.15;98.57;95523.47;1053207;28;21900;-73
2021/01/26 00:56:22;;;;;;;9.55;8.48;;;;;;;-1.15;98.44;95515.66;1055690;28;20008;-73
2021/01/26 00:56:52;;;;;;;9.95;8.95;;;;;;;-1.20;98.31;95517.03;1055771;28;20380;-73
2021/01/26 00:57:23;;;;;;;9.82;8.80;;;;;;;-1.19;98.31;95523.81;1054222;28;20361;-73
2021/01/26 00:57:54;;;;;;;8.98;8.07;;;;;;;-1.22;98.54;95526.00;1053216;28;20020;-73
2021/01/26 00:58:24;;;;;;;9.32;8.38;;;;;;;-1.20;98.82;95526.63;1052904;28;20017;-73
2021/01/26 00:58:55;;;;;;;9.63;8.63;;;;;;;-1.22;99.07;95528.59;1048651;28;20025;-73
2021/01/26 00:59:25;;;;;;;10.27;9.27;;;;;;;-1.27;99.42;95524.00;1048648;28;20412;-73
2021/01/26 00:59:56;;;;;;;9.38;8.45;;;;;;;-1.22;99.21;95524.22;1048805;28;20020;-73
2021/01/26 01:00:31;;;;;;;10.25;9.25;;;;;;;-1.24;98.75;95530.59;1048511;28;20666;-73
2021/01/26 01:01:02;;;;;;;9.93;8.52;;;;;;;-1.24;99.10;95528.81;1053137;28;20032;-73
2021/01/26 01:01:32;;;;;;;9.63;8.40;;;;;;;-1.20;98.79;95529.22;1053217;28;20012;-73
2021/01/26 01:02:03;;;;;;;10.07;9.07;;;;;;;-1.24;99.01;95534.00;1053224;28;20020;-73
2021/01/26 01:02:34;;;;;;;10.35;9.25;;;;;;;-1.23;99.17;95535.59;1053261;28;20020;-70
2021/01/26 01:03:05;;;;;;;10.27;9.20;;;;;;;-1.27;99.23;95531.78;1053225;28;20008;-72
2021/01/26 01:03:35;;;;;;;10.43;9.23;;;;;;;-1.28;99.10;95530.19;1053682;28;20023;-73
2021/01/26 01:04:05;;;;;;;9.82;8.75;;;;;;;-1.24;99.82;95530.59;1055149;28;20027;-72
2021/01/26 01:04:36;;;;;;;11.40;10.25;;;;;;;-1.23;99.25;95527.81;1054573;28;20028;-73
2021/01/26 01:05:07;;;;;;;10.07;9.02;;;;;;;-1.17;98.95;95533.25;1055194;28;20015;-73
2021/01/26 01:05:38;;;;;;;10.02;8.85;;;;;;;-1.16;98.42;95530.47;1055039;28;20042;-73
2021/01/26 01:06:08;;;;;;;10.93;9.73;;;;;;;-1.23;99.18;95533.00;1054718;28;20016;-73
2021/01/26 01:06:39;;;;;;;11.27;9.63;;;;;;;-1.21;98.79;95531.00;1052845;28;20013;-73
2021/01/26 01:07:09;;;;;;;9.73;8.80;;;;;;;-1.21;98.54;95541.41;1053184;28;20016;-73
2021/01/26 01:07:40;;;;;;;10.35;9.25;;;;;;;-1.21;99.30;95540.63;1053162;28;20092;-74
2021/01/26 01:08:10;;;;;;;9.52;8.60;;;;;;;-1.19;98.92;95536.03;1053198;28;20024;-74
2021/01/26 01:08:41;;;;;;;11.10;9.90;;;;;;;-1.20;98.96;95535.22;1053157;28;20043;-74
2021/01/26 01:09:11;;;;;;;11.32;10.23;;;;;;;-1.20;98.91;95537.03;1053173;28;20024;-74
2021/01/26 01:09:42;;;;;;;11.27;9.85;;;;;;;-1.18;98.81;95537.66;1053122;28;20023;-74
2021/01/26 01:10:14;;;;;;;11.10;9.90;;;;;;;-1.21;99.17;95533.63;1053219;28;20044;-74
2021/01/26 01:10:44;;;;;;;10.82;9.70;;;;;;;-1.18;98.86;95535.06;1053089;28;20073;-73
2021/01/26 01:11:15;;;;;;;10.18;9.18;;;;;;;-1.13;98.71;95545.69;1052855;28;20039;-73
2021/01/26 01:11:46;;;;;;;11.90;10.23;;;;;;;-1.15;98.63;95541.66;1052978;28;20084;-74
2021/01/26 01:12:16;;;;;;;11.10;9.90;;;;;;;-1.12;99.06;95543.88;1053276;28;20450;-74
2021/01/26 01:12:46;;;;;;;10.23;9.23;;;;;;;-1.11;98.79;95548.91;1053177;28;20016;-74
2021/01/26 01:13:17;;;;;;;11.13;9.25;;;;;;;-1.09;98.48;95546.09;1052274;28;20461;-74
2021/01/26 01:13:47;;;;;;;9.55;8.55;;;;;;;-1.09;98.45;95533.91;1052729;28;20020;-74
2021/01/26 01:14:18;;;;;;;10.98;9.93;;;;;;;-1.07;98.82;95544.09;1048718;28;20050;-74
2021/01/26 01:14:48;;;;;;;10.80;9.80;;;;;;;-1.06;98.69;95543.94;1048622;28;20027;-74
2021/01/26 01:15:19;;;;;;;10.90;9.75;;;;;;;-1.05;98.48;95544.75;1052755;28;20027;-74
2021/01/26 01:15:49;;;;;;;10.70;9.60;;;;;;;-1.04;98.28;95543.75;1052600;28;20023;-76
2021/01/26 01:16:19;;;;;;;11.00;9.77;;;;;;;-1.06;98.39;95549.16;1053206;28;20028;-76
2021/01/26 01:16:50;;;;;;;11.43;10.15;;;;;;;-1.12;98.27;95549.88;1052842;28;20034;-77
2021/01/26 01:17:20;;;;;;;12.07;10.88;;;;;;;-1.12;98.29;95549.09;1052779;28;20385;-76
2021/01/26 01:17:51;;;;;;;10.90;9.80;;;;;;;-1.19;98.47;95547.22;1052688;28;20481;-76
2021/01/26 01:18:21;;;;;;;11.60;10.40;;;;;;;-1.15;98.54;95552.06;1052948;28;20024;-77
2021/01/26 01:18:52;;;;;;;12.13;10.48;;;;;;;-1.14;98.41;95548.47;1053206;28;20465;-76
2021/01/26 01:19:23;;;;;;;11.75;10.38;;;;;;;-1.11;98.34;95558.50;1053214;28;20468;-76
2021/01/26 01:19:54;;;;;;;11.95;10.55;;;;;;;-1.11;98.20;95545.50;1053064;28;20380;-76
2021/01/26 01:20:25;;;;;;;11.93;10.45;;;;;;;-1.10;98.49;95552.28;1053226;28;20024;-76
2021/01/26 01:20:55;;;;;;;11.73;10.48;;;;;;;-1.15;98.37;95547.69;1053197;28;20027;-76
2021/01/26 01:21:26;;;;;;;12.48;10.55;;;;;;;-1.13;98.46;95552.69;1053342;28;20495;-75
2021/01/26 01:21:56;;;;;;;11.05;9.88;;;;;;;-1.10;98.41;95560.09;1052905;28;20039;-74
2021/01/26 01:22:27;;;;;;;12.38;11.07;;;;;;;-1.12;98.42;95551.69;1053198;28;20028;-75
2021/01/26 01:22:57;;;;;;;12.40;10.93;;;;;;;-1.15;98.45;95547.69;1053200;28;20131;-74
2021/01/26 01:23:28;;;;;;;12.35;11.05;;;;;;;-1.13;98.74;95553.47;1052792;28;20035;-75
2021/01/26 01:23:58;;;;;;;12.15;10.52;;;;;;;-1.11;98.87;95555.88;1048649;28;20385;-74
2021/01/26 01:24:29;;;;;;;11.73;10.52;;;;;;;-1.09;98.26;95548.69;1048627;28;20024;-74
2021/01/26 01:24:59;;;;;;;12.52;11.00;;;;;;;-1.07;97.73;95554.50;1048647;28;20024;-75
2021/01/26 01:25:29;;;;;;;11.20;10.02;;;;;;;-1.06;98.04;95558.75;1052868;28;20032;-74
2021/01/26 01:26:00;;;;;;;12.73;11.38;;;;;;;-1.07;97.91;95554.50;1052741;28;20117;-74
2021/01/26 01:26:31;;;;;;;12.43;11.13;;;;;;;-1.11;98.35;95558.50;1048492;28;20570;-73
2021/01/26 01:27:01;;;;;;;13.65;11.32;;;;;;;-1.17;98.39;95554.06;1052792;28;20020;-74
2021/01/26 01:27:31;;;;;;;12.32;11.02;;;;;;;-1.12;98.47;95555.09;1048595;28;20033;-75
2021/01/26 01:28:02;;;;;;;12.20;10.68;;;;;;;-1.11;98.23;95563.69;1047850;28;20036;-74
2021/01/26 01:28:32;;;;;;;12.30;11.00;;;;;;;-1.13;98.36;95552.69;1052840;28;20096;-74
2021/01/26 01:29:03;;;;;;;12.02;10.73;;;;;;;-1.14;98.28;95554.47;1052818;28;20024;-74
2021/01/26 01:29:33;;;;;;;12.30;11.00;;;;;;;-1.13;99.37;95557.88;1053129;28;20035;-74
2021/01/26 01:30:08;;;;;;;12.57;11.15;;;;;;;-1.13;99.10;95558.69;1053067;28;20472;-74
2021/01/26 01:30:38;;;;;;;12.60;11.05;;;;;;;-1.17;99.21;95554.88;1052770;28;20035;-74
2021/01/26 01:31:09;;;;;;;11.30;9.93;;;;;;;-1.13;99.31;95557.88;1052791;28;20028;-74
2021/01/26 01:31:39;;;;;;;13.15;10.88;;;;;;;-1.08;99.31;95561.50;1048665;28;20039;-73
2021/01/26 01:32:10;;;;;;;13.32;11.52;;;;;;;-1.07;98.74;95557.09;1048788;28;20096;-73
2021/01/26 01:32:40;;;;;;;13.27;11.65;;;;;;;-1.14;98.49;95557.09;1052824;28;20032;-74
2021/01/26 01:33:11;;;;;;;12.20;10.90;;;;;;;-1.11;98.70;95561.09;1052785;28;20028;-73
2021/01/26 01:33:41;;;;;;;12.77;11.40;;;;;;;-1.12;98.45;95562.09;1053125;28;20028;-73
2021/01/26 01:34:11;;;;;;;13.20;11.57;;;;;;;-1.12;98.65;95565.50;1053027;28;20020;-73
2021/01/26 01:34:42;;;;;;;12.05;10.82;;;;;;;-1.09;98.89;95564.31;1052562;28;20048;-73
2021/01/26 01:35:12;;;;;;;12.73;11.38;;;;;;;-1.12;98.58;95562.09;1052822;28;20465;-74
2021/01/26 01:35:43;;;;;;;14.18;11.80;;;;;;;-1.12;98.01;95556.88;1052735;28;20028;-74
2021/01/26 01:36:13;;;;;;;13.38;11.20;;;;;;;-1.11;98.21;95554.09;1052670;28;20031;-74
2021/01/26 01:36:44;;;;;;;14.10;11.48;;;;;;;-1.07;98.41;95563.13;1052827;28;20028;-74
2021/01/26 01:37:14;;;;;;;12.88;11.30;;;;;;;-1.10;98.58;95563.50;1053013;28;20012;-75
2021/01/26 01:37:45;;;;;;;13.35;11.68;;;;;;;-1.08;98.58;95563.31;1053123;28;20008;-74
2021/01/26 01:38:15;;;;;;;11.48;10.15;;;;;;;-1.09;98.46;95562.50;1052884;28;20351;-75
2021/01/26 01:38:46;;;;;;;13.75;11.68;;;;;;;-1.06;98.34;95559.53;1052960;28;20020;-75
2021/01/26 01:39:17;;;;;;;12.00;10.80;;;;;;;-1.04;98.15;95554.16;1052456;28;20042;-75
2021/01/26 01:39:47;;;;;;;12.38;11.07;;;;;;;-1.06;98.29;95556.94;1052892;28;20388;-75
2021/01/26 01:40:29;;;;;;;12.50;10.48;;;;;;;-1.02;98.07;95562.56;1047843;28;20051;-75
2021/01/26 01:40:59;;;;;;;12.73;10.68;;;;;;;-1.06;97.88;95569.16;1050302;28;20016;-75
2021/01/26 01:41:30;;;;;;;11.93;10.70;;;;;;;-1.04;97.84;95561.97;1052699;28;20016;-74
2021/01/26 01:42:08;;;;;;;11.30;10.15;;;;;;;-1.03;97.47;95566.16;1052807;28;20020;-74
2021/01/26 01:42:38;;;;;;;12.30;10.98;;;;;;;-1.06;97.49;95558.75;1053017;28;20032;-75
2021/01/26 01:43:09;;;;;;;12.80;11.27;;;;;;;-1.07;97.94;95562.31;1053090;28;20020;-74
2021/01/26 01:43:39;;;;;;;12.95;11.65;;;;;;;-1.12;97.67;95552.50;1053065;28;20032;-74
2021/01/26 01:44:10;;;;;;;14.27;11.43;;;;;;;-1.14;98.13;95564.09;1053114;28;20020;-74
2021/01/26 01:44:40;;;;;;;12.65;11.02;;;;;;;-1.12;98.25;95564.69;1052949;28;20101;-74
2021/01/26 01:45:11;;;;;;;13.50;11.00;;;;;;;-1.09;97.58;95564.31;1052589;28;20069;-74
2021/01/26 01:45:41;;;;;;;11.35;10.18;;;;;;;-1.10;97.45;95563.50;1052599;28;20039;-74
2021/01/26 01:46:13;;;;;;;14.25;12.75;;;;;;;-1.07;98.48;95567.50;1053119;28;20028;-74
2021/01/26 01:46:48;;;;;;;13.38;11.23;;;;;;;-1.07;97.73;95572.72;1052646;28;20024;-74
2021/01/26 01:47:27;;;;;;;12.20;11.00;;;;;;;-1.09;97.41;95569.50;1048539;28;20020;-74
2021/01/26 01:48:04;;;;;;;13.57;12.18;;;;;;;-1.12;97.95;95567.28;1044491;28;20024;-74
2021/01/26 01:48:34;;;;;;;13.13;11.13;;;;;;;-1.12;97.88;95570.69;1047174;28;20107;-74
2021/01/26 01:49:05;;;;;;;11.73;10.52;;;;;;;-1.14;97.41;95570.09;1050975;28;20012;-74
2021/01/26 01:49:38;;;;;;;12.68;11.38;;;;;;;-1.12;97.40;95569.88;1049181;28;20151;-74
2021/01/26 01:50:11;;;;;;;12.48;10.88;;;;;;;-1.11;97.48;95572.31;1044337;28;20028;-74
2021/01/26 01:51:01;;;;;;;12.35;11.05;;;;;;;-1.14;97.01;95571.88;1044316;28;20562;-74
2021/01/26 01:51:35;;;;;;;11.38;10.10;;;;;;;-1.12;96.78;95562.09;1046941;28;20043;-74
2021/01/26 01:52:05;;;;;;;12.38;10.52;;;;;;;-1.17;96.78;95569.66;1044010;28;20046;-74
2021/01/26 01:52:35;;;;;;;12.00;10.52;;;;;;;-1.16;97.18;95566.06;1047644;28;20023;-74
2021/01/26 01:53:24;;;;;;;12.10;10.68;;;;;;;-1.12;97.39;95569.88;1044425;28;20059;-74
2021/01/26 01:53:57;;;;;;;11.10;9.90;;;;;;;-1.10;97.34;95573.91;1043069;28;20033;-74
2021/01/26 01:54:49;;;;;;;11.80;10.35;;;;;;;-1.12;96.59;95572.50;1044473;28;20048;-74
2021/01/26 01:55:20;;;;;;;12.32;10.52;;;;;;;-1.11;96.03;95566.28;1050198;28;20044;-74
2021/01/26 01:55:56;;;;;;;12.20;10.75;;;;;;;-1.12;96.85;95564.69;1044957;28;20025;-74
2021/01/26 01:56:38;;;;;;;12.18;10.77;;;;;;;-1.12;97.35;95569.88;1044530;28;20099;-74
2021/01/26 01:57:14;;;;;;;13.10;11.15;;;;;;;-1.12;96.97;95568.09;1044513;28;20029;-74
2021/01/26 01:57:51;;;;;;;12.00;10.80;;;;;;;-1.12;96.60;95575.09;1046824;28;20515;-74
2021/01/26 01:58:25;;;;;;;12.35;10.45;;;;;;;-1.14;96.41;95567.47;1044615;28;20025;-74
2021/01/26 01:59:02;;;;;;;11.25;10.10;;;;;;;-1.15;96.41;95575.47;1036284;28;20590;-74
2021/01/26 01:59:40;;;;;;;11.75;10.48;;;;;;;-1.14;97.45;95571.88;1034634;28;20023;-74
2021/01/26 02:00:14;;;;;;;11.98;10.77;;;;;;;-1.18;97.23;95574.06;1039412;28;20613;-74
2021/01/26 02:00:51;;;;;;;12.40;11.02;;;;;;;-1.17;96.99;95570.47;1045378;28;20572;-74
2021/01/26 02:01:25;;;;;;;11.07;9.80;;;;;;;-1.13;96.71;95570.88;1043523;28;20482;-74
2021/01/26 02:01:55;;;;;;;12.13;10.82;;;;;;;-1.22;96.69;95576.22;1044233;28;20511;-74
2021/01/26 02:02:26;;;;;;;10.70;9.23;;;;;;;-1.17;96.38;95575.66;1044389;28;20028;-74
2021/01/26 02:03:03;;;;;;;11.27;10.10;;;;;;;-1.16;95.93;95577.28;1045589;28;20021;-74
2021/01/26 02:03:34;;;;;;;11.85;10.25;;;;;;;-1.15;96.36;95575.47;1044462;28;20398;-74
2021/01/26 02:04:07;;;;;;;12.23;9.70;;;;;;;-1.16;96.65;95579.06;1044532;28;20424;-74
2021/01/26 02:04:37;;;;;;;11.35;10.15;;;;;;;-1.15;96.57;95576.28;1048519;28;20103;-74
2021/01/26 02:05:08;;;;;;;11.93;10.52;;;;;;;-1.14;96.14;95582.28;1048597;28;20035;-74
2021/01/26 02:05:40;;;;;;;12.20;10.98;;;;;;;-1.13;97.23;95576.09;1044339;28;20017;-74
2021/01/26 02:06:10;;;;;;;12.15;10.48;;;;;;;-1.12;96.40;95586.31;1040709;28;20057;-74
2021/01/26 02:06:42;;;;;;;11.05;9.73;;;;;;;-1.12;95.64;95582.91;1044413;28;20030;-73
2021/01/26 02:07:12;;;;;;;12.57;10.93;;;;;;;-1.16;96.50;95577.28;1036577;28;20128;-74
2021/01/26 02:07:42;;;;;;;12.35;10.88;;;;;;;-1.22;96.21;95580.63;1036428;28;20092;-74
2021/01/26 02:08:17;;;;;;;12.48;11.18;;;;;;;-1.19;96.06;95581.03;1040241;28;20030;-74
2021/01/26 02:09:02;;;;;;;12.55;10.73;;;;;;;-1.19;95.54;95585.44;1045950;28;20071;-74
2021/01/26 02:09:36;;;;;;;12.82;10.23;;;;;;;-1.18;96.00;95589.66;1055499;28;20024;-74
2021/01/26 02:10:07;;;;;;;12.80;10.77;;;;;;;-1.24;96.13;95583.41;1056903;28;20060;-74
2021/01/26 02:10:37;;;;;;;12.48;11.13;;;;;;;-1.21;95.89;95582.22;1049689;28;20569;-74
2021/01/26 02:11:08;;;;;;;12.70;11.40;;;;;;;-1.19;96.76;95590.63;1048586;28;20024;-74
2021/01/26 02:11:38;;;;;;;12.10;10.77;;;;;;;-1.26;96.64;95590.59;1050778;28;20040;-74
2021/01/26 02:12:11;;;;;;;12.70;11.15;;;;;;;-1.24;96.20;95598.19;1052647;28;20024;-74
2021/01/26 02:12:42;;;;;;;13.75;11.00;;;;;;;-1.23;95.84;95595.41;1052824;28;20024;-73
2021/01/26 02:13:12;;;;;;;12.85;11.13;;;;;;;-1.25;95.83;95594.81;1052803;28;20099;-74
2021/01/26 02:13:42;;;;;;;14.15;11.93;;;;;;;-1.30;96.24;95594.56;1052758;28;20020;-74
2021/01/26 02:14:13;;;;;;;11.50;10.32;;;;;;;-1.27;96.09;95593.38;1052851;28;20024;-74
2021/01/26 02:14:48;;;;;;;14.57;11.70;;;;;;;-1.29;95.98;95596.19;1053057;28;20031;-74
2021/01/26 02:15:19;;;;;;;14.00;12.00;;;;;;;-1.27;96.64;95598.59;1052823;28;20098;-74
2021/01/26 02:15:53;;;;;;;12.07;10.77;;;;;;;-1.24;95.98;95599.00;1052546;28;20012;-74
2021/01/26 02:16:45;;;;;;;12.10;10.52;;;;;;;-1.21;96.15;95603.03;1044331;28;20066;-73
2021/01/26 02:17:53;;;;;;;13.50;11.80;;;;;;;-1.22;95.97;95596.22;1047945;28;20033;-73
2021/01/26 02:18:42;;;;;;;12.00;10.68;;;;;;;-1.22;96.01;95604.81;1053002;28;20032;-74
2021/01/26 02:19:31;;;;;;;11.73;10.52;;;;;;;-1.19;96.25;95607.03;1052814;28;20020;-74
2021/01/26 02:20:26;;;;;;;11.82;10.27;;;;;;;-1.17;96.29;95608.69;1052410;28;20063;-74
2021/01/26 02:21:12;;;;;;;13.45;11.93;;;;;;;-1.23;96.24;95605.81;1050217;28;20024;-74
2021/01/26 02:22:04;;;;;;;12.57;10.55;;;;;;;-1.26;95.81;95606.19;1048625;28;20095;-74
2021/01/26 02:23:19;;;;;;;12.60;10.20;;;;;;;-1.23;96.15;95603.22;1049648;28;20016;-74
2021/01/26 02:23:57;;;;;;;12.57;10.50;;;;;;;-1.31;95.57;95602.53;1050899;28;20032;-74
2021/01/26 02:24:28;;;;;;;12.48;10.45;;;;;;;-1.30;95.23;95612.78;1052687;28;20523;-73
2021/01/26 02:25:26;;;;;;;14.10;10.93;;;;;;;-1.32;95.40;95606.94;1052676;28;20020;-74
2021/01/26 02:26:33;;;;;;;12.32;10.45;;;;;;;-1.30;96.11;95609.38;1053833;28;20392;-74
2021/01/26 02:27:16;;;;;;;13.13;11.48;;;;;;;-1.29;95.74;95610.97;1053795;28;20562;-74
2021/01/26 02:28:24;;;;;;;11.50;9.77;;;;;;;-1.25;95.29;95614.81;1045565;28;20041;-74
2021/01/26 02:29:08;;;;;;;12.90;11.15;;;;;;;-1.28;96.08;95617.78;1049773;28;20529;-74
2021/01/26 02:29:55;;;;;;;12.75;10.65;;;;;;;-1.29;94.86;95614.38;1048223;28;20029;-74
2021/01/26 02:30:42;;;;;;;12.98;11.13;;;;;;;-1.27;96.08;95622.00;1044379;28;20032;-74
2021/01/26 02:31:35;;;;;;;13.63;10.80;;;;;;;-1.31;95.43;95621.53;1033807;28;20018;-74
2021/01/26 02:32:12;;;;;;;13.88;11.73;;;;;;;-1.30;95.70;95620.56;1031870;28;20514;-74
2021/01/26 02:32:50;;;;;;;13.38;11.60;;;;;;;-1.31;95.64;95618.94;1031999;28;20025;-74